sensor_id;sensor_type;location;lat;lon;timestamp;P1;durP1;ratioP1;P2;durP2;ratioP2
68886;SDS011;55925;51.764;6.402;2024-01-11T00:00:47;26.42;;;10.20;;
68886;SDS011;55925;51.764;6.402;2024-01-11T00:03:14;23.13;;;9.43;;
68886;SDS011;55925;51.764;6.402;2024-01-11T00:05:40;20.08;;;9.80;;
68886;SDS011;55925;51.764;6.402;2024-01-11T00:08:06;22.30;;;9.85;;
68886;SDS011;55925;51.764;6.402;2024-01-11T00:12:58;25.52;;;10.60;;
68886;SDS011;55925;51.764;6.402;2024-01-11T00:15:24;22.23;;;9.13;;
68886;SDS011;55925;51.764;6.402;2024-01-11T00:17:50;29.20;;;10.80;;
68886;SDS011;55925;51.764;6.402;2024-01-11T00:20:16;25.48;;;10.90;;
68886;SDS011;55925;51.764;6.402;2024-01-11T00:22:42;22.65;;;9.27;;
68886;SDS011;55925;51.764;6.402;2024-01-11T00:25:08;27.17;;;10.02;;
68886;SDS011;55925;51.764;6.402;2024-01-11T00:30:00;26.75;;;9.75;;
68886;SDS011;55925;51.764;6.402;2024-01-11T00:32:26;31.83;;;10.15;;
68886;SDS011;55925;51.764;6.402;2024-01-11T00:34:52;29.90;;;10.35;;
68886;SDS011;55925;51.764;6.402;2024-01-11T00:37:18;29.55;;;9.73;;
68886;SDS011;55925;51.764;6.402;2024-01-11T00:39:44;26.38;;;10.48;;
68886;SDS011;55925;51.764;6.402;2024-01-11T00:42:10;25.67;;;9.88;;
68886;SDS011;55925;51.764;6.402;2024-01-11T00:47:02;26.52;;;11.80;;
68886;SDS011;55925;51.764;6.402;2024-01-11T00:49:28;23.65;;;10.63;;
68886;SDS011;55925;51.764;6.402;2024-01-11T00:51:54;33.65;;;12.40;;
68886;SDS011;55925;51.764;6.402;2024-01-11T00:54:20;19.55;;;10.07;;
68886;SDS011;55925;51.764;6.402;2024-01-11T00:56:47;24.85;;;11.07;;
68886;SDS011;55925;51.764;6.402;2024-01-11T00:59:13;29.45;;;10.27;;
68886;SDS011;55925;51.764;6.402;2024-01-11T01:01:39;23.33;;;9.65;;
68886;SDS011;55925;51.764;6.402;2024-01-11T01:04:05;30.23;;;11.45;;
68886;SDS011;55925;51.764;6.402;2024-01-11T01:06:31;28.05;;;11.60;;
68886;SDS011;55925;51.764;6.402;2024-01-11T01:08:57;26.70;;;11.00;;
68886;SDS011;55925;51.764;6.402;2024-01-11T01:11:22;26.40;;;11.38;;
68886;SDS011;55925;51.764;6.402;2024-01-11T01:13:48;30.70;;;11.57;;
68886;SDS011;55925;51.764;6.402;2024-01-11T01:16:14;22.02;;;11.15;;
68886;SDS011;55925;51.764;6.402;2024-01-11T01:18:42;31.40;;;11.32;;
68886;SDS011;55925;51.764;6.402;2024-01-11T01:21:08;16.23;;;7.72;;
68886;SDS011;55925;51.764;6.402;2024-01-11T01:23:34;27.35;;;11.30;;
68886;SDS011;55925;51.764;6.402;2024-01-11T01:26:00;31.95;;;11.30;;
68886;SDS011;55925;51.764;6.402;2024-01-11T01:28:26;27.70;;;11.48;;
68886;SDS011;55925;51.764;6.402;2024-01-11T01:30:52;22.58;;;10.23;;
68886;SDS011;55925;51.764;6.402;2024-01-11T01:33:18;28.27;;;10.30;;
68886;SDS011;55925;51.764;6.402;2024-01-11T01:35:44;23.92;;;9.55;;
68886;SDS011;55925;51.764;6.402;2024-01-11T01:38:11;31.80;;;13.07;;
68886;SDS011;55925;51.764;6.402;2024-01-11T01:40:37;23.17;;;10.18;;
68886;SDS011;55925;51.764;6.402;2024-01-11T01:43:06;24.17;;;9.60;;
68886;SDS011;55925;51.764;6.402;2024-01-11T01:45:32;22.75;;;10.15;;
68886;SDS011;55925;51.764;6.402;2024-01-11T01:47:58;30.13;;;12.18;;
68886;SDS011;55925;51.764;6.402;2024-01-11T01:50:24;28.85;;;10.98;;
68886;SDS011;55925;51.764;6.402;2024-01-11T01:52:51;31.38;;;11.35;;
68886;SDS011;55925;51.764;6.402;2024-01-11T01:55:17;24.77;;;11.88;;
68886;SDS011;55925;51.764;6.402;2024-01-11T01:57:44;30.45;;;10.27;;
68886;SDS011;55925;51.764;6.402;2024-01-11T02:00:11;21.88;;;9.60;;
68886;SDS011;55925;51.764;6.402;2024-01-11T02:02:38;29.75;;;12.38;;
68886;SDS011;55925;51.764;6.402;2024-01-11T02:05:05;26.27;;;10.95;;
68886;SDS011;55925;51.764;6.402;2024-01-11T02:07:32;22.40;;;9.80;;
68886;SDS011;55925;51.764;6.402;2024-01-11T02:09:58;25.75;;;9.88;;
68886;SDS011;55925;51.764;6.402;2024-01-11T02:12:25;27.08;;;9.93;;
68886;SDS011;55925;51.764;6.402;2024-01-11T02:14:52;23.13;;;10.07;;
68886;SDS011;55925;51.764;6.402;2024-01-11T02:17:18;31.35;;;10.43;;
68886;SDS011;55925;51.764;6.402;2024-01-11T02:19:44;23.17;;;10.13;;
68886;SDS011;55925;51.764;6.402;2024-01-11T02:25:06;32.47;;;11.48;;
68886;SDS011;55925;51.764;6.402;2024-01-11T02:27:48;34.60;;;10.43;;
68886;SDS011;55925;51.764;6.402;2024-01-11T02:30:14;24.10;;;9.73;;
68886;SDS011;55925;51.764;6.402;2024-01-11T02:32:42;22.63;;;8.80;;
68886;SDS011;55925;51.764;6.402;2024-01-11T02:35:09;26.80;;;10.27;;
68886;SDS011;55925;51.764;6.402;2024-01-11T02:40:01;27.05;;;9.90;;
68886;SDS011;55925;51.764;6.402;2024-01-11T02:42:27;20.73;;;9.25;;
68886;SDS011;55925;51.764;6.402;2024-01-11T02:44:53;23.85;;;8.25;;
68886;SDS011;55925;51.764;6.402;2024-01-11T02:47:19;24.75;;;10.40;;
68886;SDS011;55925;51.764;6.402;2024-01-11T02:49:45;22.77;;;9.38;;
68886;SDS011;55925;51.764;6.402;2024-01-11T02:52:11;23.02;;;9.43;;
68886;SDS011;55925;51.764;6.402;2024-01-11T02:54:37;25.10;;;10.35;;
68886;SDS011;55925;51.764;6.402;2024-01-11T02:57:03;22.60;;;9.32;;
68886;SDS011;55925;51.764;6.402;2024-01-11T02:59:29;24.30;;;10.75;;
68886;SDS011;55925;51.764;6.402;2024-01-11T03:01:56;33.47;;;10.75;;
68886;SDS011;55925;51.764;6.402;2024-01-11T03:04:22;26.13;;;9.77;;
68886;SDS011;55925;51.764;6.402;2024-01-11T03:06:47;22.15;;;7.95;;
68886;SDS011;55925;51.764;6.402;2024-01-11T03:09:13;18.20;;;7.82;;
68886;SDS011;55925;51.764;6.402;2024-01-11T03:11:39;20.48;;;7.35;;
68886;SDS011;55925;51.764;6.402;2024-01-11T03:14:05;21.60;;;9.10;;
68886;SDS011;55925;51.764;6.402;2024-01-11T03:16:31;23.45;;;9.88;;
68886;SDS011;55925;51.764;6.402;2024-01-11T03:18:57;23.55;;;9.38;;
68886;SDS011;55925;51.764;6.402;2024-01-11T03:21:23;22.52;;;9.10;;
68886;SDS011;55925;51.764;6.402;2024-01-11T03:23:50;24.15;;;9.52;;
68886;SDS011;55925;51.764;6.402;2024-01-11T03:26:16;20.50;;;9.15;;
68886;SDS011;55925;51.764;6.402;2024-01-11T03:28:42;15.88;;;7.88;;
68886;SDS011;55925;51.764;6.402;2024-01-11T03:33:34;17.17;;;7.07;;
68886;SDS011;55925;51.764;6.402;2024-01-11T03:36:06;21.02;;;7.30;;
68886;SDS011;55925;51.764;6.402;2024-01-11T03:38:32;26.63;;;9.10;;
68886;SDS011;55925;51.764;6.402;2024-01-11T03:40:58;20.70;;;8.18;;
68886;SDS011;55925;51.764;6.402;2024-01-11T03:43:24;22.73;;;7.18;;
68886;SDS011;55925;51.764;6.402;2024-01-11T03:45:50;24.85;;;8.75;;
68886;SDS011;55925;51.764;6.402;2024-01-11T03:48:16;20.08;;;7.57;;
68886;SDS011;55925;51.764;6.402;2024-01-11T03:50:42;22.25;;;9.02;;
68886;SDS011;55925;51.764;6.402;2024-01-11T03:53:08;27.00;;;8.43;;
68886;SDS011;55925;51.764;6.402;2024-01-11T03:55:34;24.50;;;8.65;;
68886;SDS011;55925;51.764;6.402;2024-01-11T03:58:00;18.50;;;8.23;;
68886;SDS011;55925;51.764;6.402;2024-01-11T04:00:26;18.13;;;7.93;;
68886;SDS011;55925;51.764;6.402;2024-01-11T04:02:52;25.23;;;8.70;;
68886;SDS011;55925;51.764;6.402;2024-01-11T04:07:44;16.48;;;8.32;;
68886;SDS011;55925;51.764;6.402;2024-01-11T04:10:10;25.48;;;9.60;;
68886;SDS011;55925;51.764;6.402;2024-01-11T04:12:36;20.48;;;7.72;;
68886;SDS011;55925;51.764;6.402;2024-01-11T04:15:02;18.67;;;7.93;;
68886;SDS011;55925;51.764;6.402;2024-01-11T04:19:54;21.10;;;7.25;;
68886;SDS011;55925;51.764;6.402;2024-01-11T04:24:46;20.25;;;8.35;;
68886;SDS011;55925;51.764;6.402;2024-01-11T04:27:12;24.75;;;8.23;;
68886;SDS011;55925;51.764;6.402;2024-01-11T04:29:38;20.20;;;7.22;;
68886;SDS011;55925;51.764;6.402;2024-01-11T04:32:04;25.67;;;8.18;;
68886;SDS011;55925;51.764;6.402;2024-01-11T04:34:30;22.67;;;8.82;;
68886;SDS011;55925;51.764;6.402;2024-01-11T04:36:56;15.27;;;6.95;;
68886;SDS011;55925;51.764;6.402;2024-01-11T04:39:22;21.90;;;8.00;;
68886;SDS011;55925;51.764;6.402;2024-01-11T04:41:48;17.30;;;7.90;;
68886;SDS011;55925;51.764;6.402;2024-01-11T04:44:14;26.17;;;8.52;;
68886;SDS011;55925;51.764;6.402;2024-01-11T04:46:40;23.83;;;8.77;;
68886;SDS011;55925;51.764;6.402;2024-01-11T04:49:06;18.60;;;8.80;;
68886;SDS011;55925;51.764;6.402;2024-01-11T04:51:32;18.52;;;7.57;;
68886;SDS011;55925;51.764;6.402;2024-01-11T04:53:58;20.92;;;8.32;;
68886;SDS011;55925;51.764;6.402;2024-01-11T04:56:24;11.73;;;6.65;;
68886;SDS011;55925;51.764;6.402;2024-01-11T04:58:50;31.70;;;8.27;;
68886;SDS011;55925;51.764;6.402;2024-01-11T05:01:16;22.38;;;8.95;;
68886;SDS011;55925;51.764;6.402;2024-01-11T05:06:08;22.17;;;6.97;;
68886;SDS011;55925;51.764;6.402;2024-01-11T05:08:34;23.17;;;8.10;;
68886;SDS011;55925;51.764;6.402;2024-01-11T05:11:00;21.40;;;7.43;;
68886;SDS011;55925;51.764;6.402;2024-01-11T05:13:26;27.10;;;9.25;;
68886;SDS011;55925;51.764;6.402;2024-01-11T05:15:52;18.25;;;7.65;;
68886;SDS011;55925;51.764;6.402;2024-01-11T05:18:18;29.10;;;9.30;;
68886;SDS011;55925;51.764;6.402;2024-01-11T05:20:44;22.20;;;8.10;;
68886;SDS011;55925;51.764;6.402;2024-01-11T05:23:10;17.13;;;7.68;;
68886;SDS011;55925;51.764;6.402;2024-01-11T05:25:36;22.48;;;8.85;;
68886;SDS011;55925;51.764;6.402;2024-01-11T05:28:02;17.00;;;6.20;;
68886;SDS011;55925;51.764;6.402;2024-01-11T05:30:29;15.98;;;6.68;;
68886;SDS011;55925;51.764;6.402;2024-01-11T05:32:55;19.83;;;8.55;;
68886;SDS011;55925;51.764;6.402;2024-01-11T05:35:22;22.13;;;8.95;;
68886;SDS011;55925;51.764;6.402;2024-01-11T05:37:49;21.08;;;8.25;;
68886;SDS011;55925;51.764;6.402;2024-01-11T05:42:41;18.08;;;7.22;;
68886;SDS011;55925;51.764;6.402;2024-01-11T05:45:07;17.50;;;7.47;;
68886;SDS011;55925;51.764;6.402;2024-01-11T05:47:33;22.80;;;8.02;;
68886;SDS011;55925;51.764;6.402;2024-01-11T05:49:59;20.95;;;8.60;;
68886;SDS011;55925;51.764;6.402;2024-01-11T05:52:25;22.85;;;7.05;;
68886;SDS011;55925;51.764;6.402;2024-01-11T05:54:50;24.55;;;10.57;;
68886;SDS011;55925;51.764;6.402;2024-01-11T05:57:16;22.35;;;8.80;;
68886;SDS011;55925;51.764;6.402;2024-01-11T05:59:43;20.27;;;7.55;;
68886;SDS011;55925;51.764;6.402;2024-01-11T06:02:10;24.05;;;7.30;;
68886;SDS011;55925;51.764;6.402;2024-01-11T06:04:36;19.85;;;7.80;;
68886;SDS011;55925;51.764;6.402;2024-01-11T06:07:01;24.60;;;7.53;;
68886;SDS011;55925;51.764;6.402;2024-01-11T06:09:27;22.77;;;9.32;;
68886;SDS011;55925;51.764;6.402;2024-01-11T06:11:53;19.25;;;8.05;;
68886;SDS011;55925;51.764;6.402;2024-01-11T06:14:19;21.27;;;7.78;;
68886;SDS011;55925;51.764;6.402;2024-01-11T06:19:11;15.27;;;6.85;;
68886;SDS011;55925;51.764;6.402;2024-01-11T06:21:37;14.52;;;7.60;;
68886;SDS011;55925;51.764;6.402;2024-01-11T06:24:03;18.05;;;7.47;;
68886;SDS011;55925;51.764;6.402;2024-01-11T06:26:29;25.52;;;8.45;;
68886;SDS011;55925;51.764;6.402;2024-01-11T06:28:55;21.23;;;8.25;;
68886;SDS011;55925;51.764;6.402;2024-01-11T06:31:21;24.75;;;9.88;;
68886;SDS011;55925;51.764;6.402;2024-01-11T06:33:47;22.73;;;9.25;;
68886;SDS011;55925;51.764;6.402;2024-01-11T06:36:13;21.45;;;8.95;;
68886;SDS011;55925;51.764;6.402;2024-01-11T06:38:39;29.27;;;8.82;;
68886;SDS011;55925;51.764;6.402;2024-01-11T06:41:05;27.60;;;10.63;;
68886;SDS011;55925;51.764;6.402;2024-01-11T06:43:31;16.95;;;7.68;;
68886;SDS011;55925;51.764;6.402;2024-01-11T06:46:01;23.00;;;8.70;;
68886;SDS011;55925;51.764;6.402;2024-01-11T06:48:28;22.02;;;8.65;;
68886;SDS011;55925;51.764;6.402;2024-01-11T06:50:54;24.02;;;8.48;;
68886;SDS011;55925;51.764;6.402;2024-01-11T06:53:20;18.77;;;8.23;;
68886;SDS011;55925;51.764;6.402;2024-01-11T06:55:45;21.45;;;8.57;;
68886;SDS011;55925;51.764;6.402;2024-01-11T06:58:12;25.50;;;8.85;;
68886;SDS011;55925;51.764;6.402;2024-01-11T07:00:38;21.05;;;8.73;;
68886;SDS011;55925;51.764;6.402;2024-01-11T07:03:08;19.33;;;7.28;;
68886;SDS011;55925;51.764;6.402;2024-01-11T07:05:35;17.60;;;8.50;;
68886;SDS011;55925;51.764;6.402;2024-01-11T07:08:01;22.17;;;8.60;;
68886;SDS011;55925;51.764;6.402;2024-01-11T07:12:53;18.30;;;8.95;;
68886;SDS011;55925;51.764;6.402;2024-01-11T07:15:19;13.32;;;6.85;;
68886;SDS011;55925;51.764;6.402;2024-01-11T07:17:45;21.60;;;7.43;;
68886;SDS011;55925;51.764;6.402;2024-01-11T07:20:11;17.88;;;7.38;;
68886;SDS011;55925;51.764;6.402;2024-01-11T07:22:38;23.10;;;8.13;;
68886;SDS011;55925;51.764;6.402;2024-01-11T07:25:04;12.13;;;5.25;;
68886;SDS011;55925;51.764;6.402;2024-01-11T07:27:30;21.85;;;9.38;;
68886;SDS011;55925;51.764;6.402;2024-01-11T07:29:56;21.83;;;7.65;;
68886;SDS011;55925;51.764;6.402;2024-01-11T07:32:22;21.00;;;9.07;;
68886;SDS011;55925;51.764;6.402;2024-01-11T07:34:48;20.45;;;8.00;;
68886;SDS011;55925;51.764;6.402;2024-01-11T07:37:13;24.08;;;8.52;;
68886;SDS011;55925;51.764;6.402;2024-01-11T07:39:39;23.38;;;8.90;;
68886;SDS011;55925;51.764;6.402;2024-01-11T07:42:05;21.08;;;8.80;;
68886;SDS011;55925;51.764;6.402;2024-01-11T07:44:31;19.33;;;7.50;;
68886;SDS011;55925;51.764;6.402;2024-01-11T07:46:58;20.40;;;8.27;;
68886;SDS011;55925;51.764;6.402;2024-01-11T07:49:24;20.48;;;7.95;;
68886;SDS011;55925;51.764;6.402;2024-01-11T07:51:50;22.90;;;8.98;;
68886;SDS011;55925;51.764;6.402;2024-01-11T07:54:15;25.05;;;8.13;;
68886;SDS011;55925;51.764;6.402;2024-01-11T07:56:41;19.25;;;8.45;;
68886;SDS011;55925;51.764;6.402;2024-01-11T07:59:07;19.70;;;9.02;;
68886;SDS011;55925;51.764;6.402;2024-01-11T08:01:38;23.80;;;8.93;;
68886;SDS011;55925;51.764;6.402;2024-01-11T08:04:05;24.92;;;8.70;;
68886;SDS011;55925;51.764;6.402;2024-01-11T08:06:31;22.98;;;8.93;;
68886;SDS011;55925;51.764;6.402;2024-01-11T08:08:57;25.73;;;10.07;;
68886;SDS011;55925;51.764;6.402;2024-01-11T08:11:23;26.17;;;9.70;;
68886;SDS011;55925;51.764;6.402;2024-01-11T08:13:49;23.02;;;7.57;;
68886;SDS011;55925;51.764;6.402;2024-01-11T08:16:18;30.02;;;9.55;;
68886;SDS011;55925;51.764;6.402;2024-01-11T08:18:44;21.27;;;9.10;;
68886;SDS011;55925;51.764;6.402;2024-01-11T08:21:10;22.13;;;9.75;;
68886;SDS011;55925;51.764;6.402;2024-01-11T08:23:40;23.50;;;9.43;;
68886;SDS011;55925;51.764;6.402;2024-01-11T08:26:12;24.50;;;8.70;;
68886;SDS011;55925;51.764;6.402;2024-01-11T08:28:43;21.33;;;9.27;;
68886;SDS011;55925;51.764;6.402;2024-01-11T08:33:35;19.27;;;7.03;;
68886;SDS011;55925;51.764;6.402;2024-01-11T08:36:02;17.25;;;8.65;;
68886;SDS011;55925;51.764;6.402;2024-01-11T08:38:28;19.00;;;8.32;;
68886;SDS011;55925;51.764;6.402;2024-01-11T08:43:20;19.58;;;9.02;;
68886;SDS011;55925;51.764;6.402;2024-01-11T08:45:46;18.80;;;6.18;;
68886;SDS011;55925;51.764;6.402;2024-01-11T08:48:13;22.85;;;9.13;;
68886;SDS011;55925;51.764;6.402;2024-01-11T08:50:39;25.67;;;10.07;;
68886;SDS011;55925;51.764;6.402;2024-01-11T08:53:06;18.95;;;8.65;;
68886;SDS011;55925;51.764;6.402;2024-01-11T08:55:31;20.80;;;9.68;;
68886;SDS011;55925;51.764;6.402;2024-01-11T08:57:58;25.55;;;9.93;;
68886;SDS011;55925;51.764;6.402;2024-01-11T09:00:23;11.10;;;5.70;;
68886;SDS011;55925;51.764;6.402;2024-01-11T09:02:49;16.10;;;7.55;;
68886;SDS011;55925;51.764;6.402;2024-01-11T09:05:15;19.55;;;8.68;;
68886;SDS011;55925;51.764;6.402;2024-01-11T09:10:07;22.42;;;8.95;;
68886;SDS011;55925;51.764;6.402;2024-01-11T09:12:34;20.13;;;8.57;;
68886;SDS011;55925;51.764;6.402;2024-01-11T09:15:00;29.77;;;10.90;;
68886;SDS011;55925;51.764;6.402;2024-01-11T09:17:26;26.52;;;10.38;;
68886;SDS011;55925;51.764;6.402;2024-01-11T09:19:52;19.92;;;7.18;;
68886;SDS011;55925;51.764;6.402;2024-01-11T09:22:18;24.80;;;9.70;;
68886;SDS011;55925;51.764;6.402;2024-01-11T09:24:44;20.27;;;8.48;;
68886;SDS011;55925;51.764;6.402;2024-01-11T09:27:10;18.90;;;7.82;;
68886;SDS011;55925;51.764;6.402;2024-01-11T09:29:36;24.55;;;9.93;;
68886;SDS011;55925;51.764;6.402;2024-01-11T09:32:02;23.33;;;9.38;;
68886;SDS011;55925;51.764;6.402;2024-01-11T09:34:28;20.95;;;8.38;;
68886;SDS011;55925;51.764;6.402;2024-01-11T09:36:53;19.38;;;10.05;;
68886;SDS011;55925;51.764;6.402;2024-01-11T09:39:23;13.52;;;6.78;;
68886;SDS011;55925;51.764;6.402;2024-01-11T09:42:09;9.82;;;4.25;;
68886;SDS011;55925;51.764;6.402;2024-01-11T09:44:36;22.48;;;9.10;;
68886;SDS011;55925;51.764;6.402;2024-01-11T09:47:08;20.02;;;8.98;;
68886;SDS011;55925;51.764;6.402;2024-01-11T09:49:37;22.30;;;9.43;;
68886;SDS011;55925;51.764;6.402;2024-01-11T09:52:04;16.13;;;7.10;;
68886;SDS011;55925;51.764;6.402;2024-01-11T09:54:30;20.77;;;8.25;;
68886;SDS011;55925;51.764;6.402;2024-01-11T09:56:57;29.55;;;11.80;;
68886;SDS011;55925;51.764;6.402;2024-01-11T09:59:25;19.88;;;9.95;;
68886;SDS011;55925;51.764;6.402;2024-01-11T10:01:52;19.50;;;10.07;;
68886;SDS011;55925;51.764;6.402;2024-01-11T10:06:44;32.53;;;10.38;;
68886;SDS011;55925;51.764;6.402;2024-01-11T10:09:10;21.50;;;10.43;;
68886;SDS011;55925;51.764;6.402;2024-01-11T10:14:02;28.90;;;12.48;;
68886;SDS011;55925;51.764;6.402;2024-01-11T10:16:30;28.77;;;9.50;;
68886;SDS011;55925;51.764;6.402;2024-01-11T10:18:56;30.77;;;8.85;;
68886;SDS011;55925;51.764;6.402;2024-01-11T10:21:23;27.92;;;8.52;;
68886;SDS011;55925;51.764;6.402;2024-01-11T10:23:49;30.48;;;11.35;;
68886;SDS011;55925;51.764;6.402;2024-01-11T10:26:15;25.20;;;10.38;;
68886;SDS011;55925;51.764;6.402;2024-01-11T10:28:44;21.23;;;8.93;;
68886;SDS011;55925;51.764;6.402;2024-01-11T10:31:11;28.08;;;11.38;;
68886;SDS011;55925;51.764;6.402;2024-01-11T10:33:37;30.35;;;12.05;;
68886;SDS011;55925;51.764;6.402;2024-01-11T10:38:32;26.48;;;10.52;;
68886;SDS011;55925;51.764;6.402;2024-01-11T10:40:59;30.38;;;12.00;;
68886;SDS011;55925;51.764;6.402;2024-01-11T10:43:26;25.60;;;10.20;;
68886;SDS011;55925;51.764;6.402;2024-01-11T10:45:53;24.63;;;9.95;;
68886;SDS011;55925;51.764;6.402;2024-01-11T10:48:23;29.27;;;10.77;;
68886;SDS011;55925;51.764;6.402;2024-01-11T10:51:00;23.70;;;9.73;;
68886;SDS011;55925;51.764;6.402;2024-01-11T10:53:46;25.75;;;10.45;;
68886;SDS011;55925;51.764;6.402;2024-01-11T10:56:14;20.02;;;8.25;;
68886;SDS011;55925;51.764;6.402;2024-01-11T10:58:44;27.70;;;11.50;;
68886;SDS011;55925;51.764;6.402;2024-01-11T11:01:10;17.80;;;8.57;;
68886;SDS011;55925;51.764;6.402;2024-01-11T11:03:37;26.30;;;10.57;;
68886;SDS011;55925;51.764;6.402;2024-01-11T11:06:06;24.42;;;9.77;;
68886;SDS011;55925;51.764;6.402;2024-01-11T11:08:39;21.17;;;9.45;;
68886;SDS011;55925;51.764;6.402;2024-01-11T11:11:05;26.02;;;10.13;;
68886;SDS011;55925;51.764;6.402;2024-01-11T11:13:32;24.98;;;11.05;;
68886;SDS011;55925;51.764;6.402;2024-01-11T11:16:02;28.98;;;10.82;;
68886;SDS011;55925;51.764;6.402;2024-01-11T11:18:32;20.88;;;9.35;;
68886;SDS011;55925;51.764;6.402;2024-01-11T11:21:00;29.25;;;10.23;;
68886;SDS011;55925;51.764;6.402;2024-01-11T11:23:26;24.92;;;9.50;;
68886;SDS011;55925;51.764;6.402;2024-01-11T11:25:53;20.25;;;7.97;;
68886;SDS011;55925;51.764;6.402;2024-01-11T11:28:20;19.70;;;8.18;;
68886;SDS011;55925;51.764;6.402;2024-01-11T11:30:48;18.80;;;8.93;;
68886;SDS011;55925;51.764;6.402;2024-01-11T11:35:43;20.75;;;8.60;;
68886;SDS011;55925;51.764;6.402;2024-01-11T11:38:17;19.45;;;8.00;;
68886;SDS011;55925;51.764;6.402;2024-01-11T11:40:43;21.92;;;8.68;;
68886;SDS011;55925;51.764;6.402;2024-01-11T11:43:10;20.17;;;7.65;;
68886;SDS011;55925;51.764;6.402;2024-01-11T11:45:38;25.42;;;10.30;;
68886;SDS011;55925;51.764;6.402;2024-01-11T11:53:17;23.92;;;9.95;;
68886;SDS011;55925;51.764;6.402;2024-01-11T11:58:08;13.40;;;6.45;;
68886;SDS011;55925;51.764;6.402;2024-01-11T12:00:38;21.17;;;10.35;;
68886;SDS011;55925;51.764;6.402;2024-01-11T12:03:04;22.80;;;8.40;;
68886;SDS011;55925;51.764;6.402;2024-01-11T12:05:30;23.48;;;9.77;;
68886;SDS011;55925;51.764;6.402;2024-01-11T12:07:56;24.48;;;9.52;;
68886;SDS011;55925;51.764;6.402;2024-01-11T12:12:48;17.75;;;6.97;;
68886;SDS011;55925;51.764;6.402;2024-01-11T12:15:15;23.85;;;9.35;;
68886;SDS011;55925;51.764;6.402;2024-01-11T12:17:41;25.15;;;9.93;;
68886;SDS011;55925;51.764;6.402;2024-01-11T12:20:07;20.67;;;8.40;;
68886;SDS011;55925;51.764;6.402;2024-01-11T12:22:33;28.45;;;11.35;;
68886;SDS011;55925;51.764;6.402;2024-01-11T12:24:59;27.50;;;11.65;;
68886;SDS011;55925;51.764;6.402;2024-01-11T12:27:25;29.85;;;11.45;;
68886;SDS011;55925;51.764;6.402;2024-01-11T12:29:52;34.10;;;14.23;;
68886;SDS011;55925;51.764;6.402;2024-01-11T12:32:18;39.80;;;14.95;;
68886;SDS011;55925;51.764;6.402;2024-01-11T12:34:44;49.00;;;16.95;;
68886;SDS011;55925;51.764;6.402;2024-01-11T12:37:10;51.15;;;19.98;;
68886;SDS011;55925;51.764;6.402;2024-01-11T12:39:39;53.42;;;18.08;;
68886;SDS011;55925;51.764;6.402;2024-01-11T12:42:05;63.60;;;23.42;;
68886;SDS011;55925;51.764;6.402;2024-01-11T12:44:31;41.05;;;15.90;;
68886;SDS011;55925;51.764;6.402;2024-01-11T12:46:58;30.10;;;11.43;;
68886;SDS011;55925;51.764;6.402;2024-01-11T12:49:24;23.08;;;8.18;;
68886;SDS011;55925;51.764;6.402;2024-01-11T12:51:50;15.52;;;5.63;;
68886;SDS011;55925;51.764;6.402;2024-01-11T12:54:16;14.98;;;4.47;;
68886;SDS011;55925;51.764;6.402;2024-01-11T12:56:45;15.02;;;4.93;;
68886;SDS011;55925;51.764;6.402;2024-01-11T12:59:11;12.20;;;4.45;;
68886;SDS011;55925;51.764;6.402;2024-01-11T13:01:40;11.68;;;4.55;;
68886;SDS011;55925;51.764;6.402;2024-01-11T13:04:08;11.77;;;4.53;;
68886;SDS011;55925;51.764;6.402;2024-01-11T13:06:34;18.27;;;5.68;;
68886;SDS011;55925;51.764;6.402;2024-01-11T13:09:01;11.73;;;3.50;;
68886;SDS011;55925;51.764;6.402;2024-01-11T13:11:27;11.05;;;4.25;;
68886;SDS011;55925;51.764;6.402;2024-01-11T13:13:54;13.48;;;4.93;;
68886;SDS011;55925;51.764;6.402;2024-01-11T13:16:20;11.10;;;4.15;;
68886;SDS011;55925;51.764;6.402;2024-01-11T13:18:46;11.02;;;4.68;;
68886;SDS011;55925;51.764;6.402;2024-01-11T13:21:12;12.60;;;4.40;;
68886;SDS011;55925;51.764;6.402;2024-01-11T13:23:39;20.92;;;7.13;;
68886;SDS011;55925;51.764;6.402;2024-01-11T13:26:05;19.27;;;5.85;;
68886;SDS011;55925;51.764;6.402;2024-01-11T13:28:31;16.10;;;5.22;;
68886;SDS011;55925;51.764;6.402;2024-01-11T13:30:58;17.73;;;6.43;;
68886;SDS011;55925;51.764;6.402;2024-01-11T13:33:24;16.63;;;6.53;;
68886;SDS011;55925;51.764;6.402;2024-01-11T13:35:50;12.85;;;6.40;;
68886;SDS011;55925;51.764;6.402;2024-01-11T13:40:42;18.17;;;6.03;;
68886;SDS011;55925;51.764;6.402;2024-01-11T13:43:08;15.65;;;6.00;;
68886;SDS011;55925;51.764;6.402;2024-01-11T13:45:35;19.80;;;5.50;;
68886;SDS011;55925;51.764;6.402;2024-01-11T13:48:02;18.77;;;5.75;;
68886;SDS011;55925;51.764;6.402;2024-01-11T13:50:28;18.17;;;5.32;;
68886;SDS011;55925;51.764;6.402;2024-01-11T13:52:54;14.73;;;5.45;;
68886;SDS011;55925;51.764;6.402;2024-01-11T13:55:20;16.95;;;3.92;;
68886;SDS011;55925;51.764;6.402;2024-01-11T13:57:46;19.00;;;5.55;;
68886;SDS011;55925;51.764;6.402;2024-01-11T14:00:12;14.93;;;4.80;;
68886;SDS011;55925;51.764;6.402;2024-01-11T14:02:39;16.38;;;6.28;;
68886;SDS011;55925;51.764;6.402;2024-01-11T14:05:06;16.05;;;5.20;;
68886;SDS011;55925;51.764;6.402;2024-01-11T14:07:34;16.33;;;4.47;;
68886;SDS011;55925;51.764;6.402;2024-01-11T14:10:00;17.63;;;4.45;;
68886;SDS011;55925;51.764;6.402;2024-01-11T14:12:26;16.50;;;5.78;;
68886;SDS011;55925;51.764;6.402;2024-01-11T14:14:53;14.15;;;4.75;;
68886;SDS011;55925;51.764;6.402;2024-01-11T14:17:19;13.77;;;4.60;;
68886;SDS011;55925;51.764;6.402;2024-01-11T14:22:10;16.30;;;4.80;;
68886;SDS011;55925;51.764;6.402;2024-01-11T14:24:36;13.48;;;4.30;;
68886;SDS011;55925;51.764;6.402;2024-01-11T14:27:02;15.50;;;5.00;;
68886;SDS011;55925;51.764;6.402;2024-01-11T14:29:29;13.18;;;4.40;;
68886;SDS011;55925;51.764;6.402;2024-01-11T14:31:55;15.60;;;4.55;;
68886;SDS011;55925;51.764;6.402;2024-01-11T14:34:21;16.55;;;5.82;;
68886;SDS011;55925;51.764;6.402;2024-01-11T14:36:48;21.17;;;6.10;;
68886;SDS011;55925;51.764;6.402;2024-01-11T14:39:14;14.10;;;4.88;;
68886;SDS011;55925;51.764;6.402;2024-01-11T14:41:40;16.33;;;5.63;;
68886;SDS011;55925;51.764;6.402;2024-01-11T14:44:05;16.30;;;4.43;;
68886;SDS011;55925;51.764;6.402;2024-01-11T14:46:32;17.40;;;6.28;;
68886;SDS011;55925;51.764;6.402;2024-01-11T14:48:58;18.52;;;5.93;;
68886;SDS011;55925;51.764;6.402;2024-01-11T14:51:25;19.27;;;6.13;;
68886;SDS011;55925;51.764;6.402;2024-01-11T14:53:54;17.25;;;5.65;;
68886;SDS011;55925;51.764;6.402;2024-01-11T14:56:20;17.55;;;4.65;;
68886;SDS011;55925;51.764;6.402;2024-01-11T14:58:46;16.35;;;5.78;;
68886;SDS011;55925;51.764;6.402;2024-01-11T15:01:12;16.10;;;5.38;;
68886;SDS011;55925;51.764;6.402;2024-01-11T15:03:38;16.85;;;7.43;;
68886;SDS011;55925;51.764;6.402;2024-01-11T15:06:05;14.77;;;5.55;;
68886;SDS011;55925;51.764;6.402;2024-01-11T15:08:31;16.38;;;5.45;;
68886;SDS011;55925;51.764;6.402;2024-01-11T15:10:57;17.13;;;6.13;;
68886;SDS011;55925;51.764;6.402;2024-01-11T15:13:23;16.65;;;5.38;;
68886;SDS011;55925;51.764;6.402;2024-01-11T15:15:50;18.77;;;6.72;;
68886;SDS011;55925;51.764;6.402;2024-01-11T15:18:16;13.57;;;5.07;;
68886;SDS011;55925;51.764;6.402;2024-01-11T15:20:42;16.67;;;5.25;;
68886;SDS011;55925;51.764;6.402;2024-01-11T15:23:08;35.10;;;13.65;;
68886;SDS011;55925;51.764;6.402;2024-01-11T15:25:34;21.15;;;7.18;;
68886;SDS011;55925;51.764;6.402;2024-01-11T15:28:00;19.85;;;7.70;;
68886;SDS011;55925;51.764;6.402;2024-01-11T15:30:26;14.50;;;5.35;;